Time;durP1;ratioP1;P1;durP2;ratioP2;P2;SDS_P1;SDS_P2;PMS_P1;PMS_P2;Temp;Humidity;BMP_temperature;BMP_pressure;BME280_temperature;BME280_humidity;BME280_pressure;Samples;Min_cycle;Max_cycle;Signal;HPM_P1;HPM_P2
2022/10/12 00:02:25;;;;;;;7.53;2.95;;;9.40;69.80;;;;;;4913283;29;20063;-75
2022/10/12 00:04:53;;;;;;;8.80;3.20;;;9.30;70.10;;;;;;4943933;28;20052;-75
2022/10/12 00:07:21;;;;;;;7.32;2.90;;;9.20;70.20;;;;;;4927881;29;20488;-76
2022/10/12 00:09:48;;;;;;;10.20;3.23;;;9.20;70.20;;;;;;4943692;28;20060;-75
2022/10/12 00:12:15;;;;;;;6.93;3.00;;;9.20;70.30;;;;;;4912251;29;20791;-75
2022/10/12 00:14:42;;;;;;;7.65;2.70;;;9.20;70.40;;;;;;4913689;29;20052;-75
2022/10/12 00:17:09;;;;;;;7.03;2.92;;;9.20;70.50;;;;;;4916644;29;20596;-75
2022/10/12 00:19:36;;;;;;;7.63;2.42;;;9.20;70.20;;;;;;4914864;29;20864;-75
2022/10/12 00:22:04;;;;;;;6.53;2.20;;;9.20;70.30;;;;;;4915171;29;20064;-75
2022/10/12 00:24:32;;;;;;;5.05;2.20;;;9.20;70.50;;;;;;4944402;28;20273;-75
2022/10/12 00:26:59;;;;;;;6.50;2.08;;;9.20;70.50;;;;;;4947285;28;20061;-75
2022/10/12 00:29:26;;;;;;;6.93;2.42;;;9.20;70.60;;;;;;4946675;28;20131;-75
2022/10/12 00:31:53;;;;;;;6.03;2.10;;;9.10;70.80;;;;;;4916673;29;20132;-75
2022/10/12 00:34:20;;;;;;;7.87;2.50;;;9.00;70.80;;;;;;4930725;29;20049;-75
2022/10/12 00:36:47;;;;;;;5.10;2.10;;;9.00;71.00;;;;;;4931628;28;20276;-75
2022/10/12 00:39:15;;;;;;;5.57;1.92;;;9.00;71.10;;;;;;4925046;29;20515;-75
2022/10/12 00:41:43;;;;;;;5.57;2.15;;;9.00;71.10;;;;;;4946885;28;20055;-75
2022/10/12 00:44:37;;;;;;;5.75;2.33;;;9.00;71.00;;;;;;4944795;28;20665;-75
2022/10/12 00:47:09;;;;;;;4.80;1.70;;;9.00;71.10;;;;;;4916346;29;20594;-75
2022/10/12 00:49:37;;;;;;;5.32;1.65;;;9.00;71.10;;;;;;4897670;29;20280;-75
2022/10/12 00:52:10;;;;;;;4.88;1.55;;;9.00;71.10;;;;;;4930495;28;20606;-75
2022/10/12 00:54:43;;;;;;;3.85;1.35;;;9.00;71.10;;;;;;4930767;29;20842;-75
2022/10/12 00:57:13;;;;;;;4.53;1.40;;;9.00;71.20;;;;;;4914595;29;20052;-75
2022/10/12 00:59:44;;;;;;;4.57;1.50;;;8.90;71.20;;;;;;4922660;29;20704;-75
2022/10/12 01:02:12;;;;;;;6.80;1.50;;;8.90;71.30;;;;;;4930693;28;20756;-75
2022/10/12 01:04:39;;;;;;;4.88;1.48;;;9.00;71.30;;;;;;4916138;29;20052;-75
2022/10/12 01:07:07;;;;;;;4.70;1.70;;;9.00;71.40;;;;;;4915705;29;20132;-76
2022/10/12 01:09:34;;;;;;;5.05;1.38;;;9.00;71.40;;;;;;4915803;29;20063;-75
2022/10/12 01:12:04;;;;;;;3.37;0.80;;;9.00;71.40;;;;;;4914304;29;20153;-76
2022/10/12 01:14:31;;;;;;;3.20;0.60;;;8.90;71.50;;;;;;4914371;29;20266;-75
2022/10/12 01:17:06;;;;;;;3.00;0.80;;;8.90;71.50;;;;;;4914365;29;21003;-75
2022/10/12 01:20:04;;;;;;;3.10;1.00;;;8.80;71.60;;;;;;4930205;29;20057;-75
2022/10/12 01:22:38;;;;;;;4.30;1.20;;;8.80;71.80;;;;;;4914341;29;20052;-75
2022/10/12 01:25:15;;;;;;;2.67;0.83;;;8.80;71.80;;;;;;4929962;29;20084;-75
2022/10/12 01:27:47;;;;;;;3.55;1.25;;;8.80;71.80;;;;;;4915404;29;20341;-75
2022/10/12 01:30:19;;;;;;;4.20;1.10;;;8.70;71.90;;;;;;4914030;29;20062;-75
2022/10/12 01:33:04;;;;;;;5.10;1.13;;;8.80;72.00;;;;;;4914251;29;20484;-75
2022/10/12 01:35:39;;;;;;;4.25;0.80;;;8.70;72.10;;;;;;4914102;29;20180;-75
2022/10/12 01:38:18;;;;;;;3.27;1.00;;;8.60;72.20;;;;;;4927138;29;20052;-75
2022/10/12 01:40:53;;;;;;;3.58;0.75;;;8.60;72.20;;;;;;4915369;29;20280;-75
2022/10/12 01:43:22;;;;;;;2.35;0.63;;;8.60;72.20;;;;;;4945687;28;20128;-75
2022/10/12 01:45:50;;;;;;;4.20;1.10;;;8.60;72.30;;;;;;4929969;29;20120;-75
2022/10/12 01:48:18;;;;;;;3.90;0.80;;;8.60;72.40;;;;;;4915268;29;20115;-75
2022/10/12 01:50:49;;;;;;;2.83;0.70;;;8.60;72.60;;;;;;4913695;29;20108;-75
2022/10/12 01:53:25;;;;;;;2.78;0.68;;;8.60;72.60;;;;;;4945829;28;20258;-75
2022/10/12 01:55:57;;;;;;;4.15;0.85;;;8.60;72.70;;;;;;4945880;28;20059;-75
2022/10/12 01:58:34;;;;;;;3.53;0.73;;;8.60;72.80;;;;;;4945812;28;20435;-75
2022/10/12 02:01:13;;;;;;;3.58;1.10;;;8.60;72.90;;;;;;4914913;29;20080;-75
2022/10/12 02:03:48;;;;;;;3.67;0.90;;;8.60;73.00;;;;;;4910716;29;20045;-75
2022/10/12 02:06:18;;;;;;;3.08;0.80;;;8.60;73.00;;;;;;4911228;29;20280;-75
2022/10/12 02:08:55;;;;;;;3.55;0.98;;;8.60;72.90;;;;;;4913805;29;20120;-75
2022/10/12 02:11:24;;;;;;;2.90;0.90;;;8.60;73.10;;;;;;4913517;29;20053;-75
2022/10/12 02:13:54;;;;;;;2.75;0.80;;;8.60;73.10;;;;;;4913801;29;20520;-76
2022/10/12 02:16:29;;;;;;;2.60;0.80;;;8.60;73.20;;;;;;4913451;29;20064;-76
2022/10/12 02:18:58;;;;;;;4.72;1.08;;;8.60;73.20;;;;;;4913182;29;20704;-75
2022/10/12 02:21:29;;;;;;;4.88;1.20;;;8.50;73.30;;;;;;4913539;29;20057;-75
2022/10/12 02:23:58;;;;;;;3.35;1.00;;;8.50;73.30;;;;;;4914560;29;20551;-75
2022/10/12 02:26:27;;;;;;;3.97;1.20;;;8.50;73.50;;;;;;4913085;29;20052;-75
2022/10/12 02:28:54;;;;;;;2.97;1.10;;;8.50;73.60;;;;;;4916251;28;20057;-76
2022/10/12 02:31:32;;;;;;;3.15;1.02;;;8.50;73.60;;;;;;4913288;29;20245;-75
2022/10/12 02:34:04;;;;;;;3.70;1.27;;;8.50;73.70;;;;;;4894447;29;20049;-76
2022/10/12 02:36:39;;;;;;;3.65;1.20;;;8.50;73.70;;;;;;4894548;29;20292;-76
2022/10/12 02:39:12;;;;;;;4.85;1.45;;;8.50;73.70;;;;;;4912584;29;20108;-76
2022/10/12 02:41:44;;;;;;;3.93;1.20;;;8.50;73.70;;;;;;4914943;29;20162;-75
2022/10/12 02:44:15;;;;;;;4.82;1.30;;;8.50;73.70;;;;;;4913439;29;20341;-75
2022/10/12 02:46:45;;;;;;;4.25;1.20;;;8.50;73.70;;;;;;4912947;29;20053;-75
2022/10/12 02:49:14;;;;;;;4.75;2.10;;;8.50;73.60;;;;;;4912833;29;20057;-75
2022/10/12 02:51:42;;;;;;;6.82;1.50;;;8.50;73.60;;;;;;4912990;29;20052;-75
2022/10/12 02:54:09;;;;;;;4.73;1.70;;;8.50;73.60;;;;;;4914703;29;20533;-75
2022/10/12 02:56:43;;;;;;;4.18;1.55;;;8.50;73.60;;;;;;4914502;29;20280;-75
2022/10/12 02:59:10;;;;;;;4.88;1.52;;;8.50;73.80;;;;;;4913106;29;20060;-76
2022/10/12 03:01:37;;;;;;;6.32;2.60;;;8.50;73.60;;;;;;4913044;29;20132;-76
2022/10/12 03:04:05;;;;;;;4.78;1.73;;;8.60;73.50;;;;;;4913203;29;20205;-75
2022/10/12 03:06:32;;;;;;;7.63;2.20;;;8.60;73.60;;;;;;4912876;29;20054;-75
2022/10/12 03:09:00;;;;;;;5.47;1.90;;;8.60;73.70;;;;;;4913891;29;21149;-75
2022/10/12 03:11:27;;;;;;;6.32;2.20;;;8.50;73.70;;;;;;4928697;29;20538;-75
2022/10/12 03:13:54;;;;;;;4.60;1.60;;;8.50;73.90;;;;;;4912411;29;20045;-75
2022/10/12 03:16:21;;;;;;;4.40;1.42;;;8.50;74.00;;;;;;4912841;29;20067;-75
2022/10/12 03:18:48;;;;;;;4.37;2.00;;;8.50;74.10;;;;;;4910474;29;20055;-75
2022/10/12 03:21:17;;;;;;;5.78;2.05;;;8.50;74.00;;;;;;4916351;29;20284;-75
2022/10/12 03:23:44;;;;;;;6.40;2.35;;;8.50;74.10;;;;;;4944340;28;21046;-75
2022/10/12 03:26:11;;;;;;;6.78;2.33;;;8.40;74.20;;;;;;4944637;28;20589;-75
2022/10/12 03:28:37;;;;;;;4.97;2.22;;;8.40;74.20;;;;;;4943878;28;20059;-75
2022/10/12 03:31:05;;;;;;;4.90;2.40;;;8.40;74.20;;;;;;4944405;28;20486;-75
2022/10/12 03:33:31;;;;;;;6.70;2.72;;;8.40;74.30;;;;;;4913766;29;20272;-75
2022/10/12 03:35:59;;;;;;;5.10;2.38;;;8.40;74.30;;;;;;4944303;28;20049;-75
2022/10/12 03:38:27;;;;;;;5.55;2.28;;;8.40;74.40;;;;;;4943711;28;20052;-76
2022/10/12 03:40:54;;;;;;;5.43;2.00;;;8.40;74.40;;;;;;4944561;28;20630;-75
2022/10/12 03:43:21;;;;;;;3.20;1.53;;;8.40;74.40;;;;;;4927999;29;20055;-75
2022/10/12 03:45:48;;;;;;;4.53;1.67;;;8.30;74.30;;;;;;4944372;28;20285;-75
2022/10/12 03:48:15;;;;;;;4.00;1.45;;;8.30;74.40;;;;;;4945615;28;20423;-75
2022/10/12 03:50:42;;;;;;;3.90;1.73;;;8.30;74.50;;;;;;4947506;28;20067;-75
2022/10/12 03:53:10;;;;;;;3.97;1.80;;;8.30;74.50;;;;;;4917200;29;20135;-75
2022/10/12 03:55:38;;;;;;;5.47;2.10;;;8.20;74.50;;;;;;4916958;29;20067;-75
2022/10/12 03:58:05;;;;;;;5.20;2.40;;;8.20;74.60;;;;;;4940365;28;20378;-75
2022/10/12 04:00:32;;;;;;;5.53;2.72;;;8.20;74.60;;;;;;4947117;28;20063;-75
2022/10/12 04:02:59;;;;;;;5.70;2.60;;;8.20;74.50;;;;;;4916480;29;20052;-75
2022/10/12 04:05:26;;;;;;;5.57;2.70;;;8.20;74.50;;;;;;4931247;29;20072;-75
2022/10/12 04:07:53;;;;;;;6.23;2.80;;;8.20;74.50;;;;;;4946996;28;20063;-75
2022/10/12 04:10:20;;;;;;;4.82;2.40;;;8.20;74.50;;;;;;4947287;28;20269;-75
2022/10/12 04:12:48;;;;;;;5.15;2.30;;;8.20;74.50;;;;;;4916705;29;20060;-75
2022/10/12 04:15:16;;;;;;;7.85;2.92;;;8.20;74.40;;;;;;4915546;29;20056;-75
2022/10/12 04:17:43;;;;;;;5.38;2.80;;;8.20;74.40;;;;;;4933455;28;20108;-75
2022/10/12 04:20:12;;;;;;;6.63;3.10;;;8.20;74.50;;;;;;4930957;29;20059;-75
2022/10/12 04:22:39;;;;;;;4.55;2.90;;;8.20;74.60;;;;;;4946745;28;21155;-75
2022/10/12 04:25:07;;;;;;;7.30;3.88;;;8.20;74.60;;;;;;4947239;28;20609;-75
2022/10/12 04:27:34;;;;;;;5.60;3.00;;;8.20;74.70;;;;;;4916442;29;20049;-75
2022/10/12 04:30:02;;;;;;;6.78;3.10;;;8.20;74.60;;;;;;4916428;29;20053;-75
2022/10/12 04:32:30;;;;;;;9.50;3.40;;;8.20;74.60;;;;;;4947210;28;20052;-75
2022/10/12 04:34:57;;;;;;;6.50;3.10;;;8.20;74.50;;;;;;4947154;28;20285;-75
2022/10/12 04:37:26;;;;;;;6.22;3.00;;;8.20;74.50;;;;;;4916000;29;20558;-75
2022/10/12 04:39:53;;;;;;;5.85;2.63;;;8.20;74.50;;;;;;4946473;28;20053;-75
2022/10/12 04:42:20;;;;;;;5.68;2.58;;;8.20;74.60;;;;;;4930886;29;20053;-75
2022/10/12 04:44:47;;;;;;;6.50;2.70;;;8.10;74.60;;;;;;4916268;29;20052;-75
2022/10/12 04:47:15;;;;;;;7.10;3.28;;;8.10;74.70;;;;;;4914760;29;20365;-75
2022/10/12 04:49:42;;;;;;;6.05;2.80;;;8.10;74.70;;;;;;4911347;29;20065;-75
2022/10/12 04:52:09;;;;;;;8.10;3.83;;;8.00;74.80;;;;;;4911737;29;20057;-75
2022/10/12 04:54:36;;;;;;;8.18;3.90;;;8.00;74.80;;;;;;4915267;29;20049;-75
2022/10/12 04:57:03;;;;;;;5.50;3.10;;;8.00;74.90;;;;;;4914816;29;20053;-75
2022/10/12 04:59:29;;;;;;;6.30;3.47;;;8.00;75.00;;;;;;4927583;29;20264;-75
2022/10/12 05:01:56;;;;;;;7.85;3.53;;;8.00;75.00;;;;;;4946417;28;20123;-75
2022/10/12 05:04:25;;;;;;;8.18;3.38;;;8.00;75.00;;;;;;4945921;28;20479;-75
2022/10/12 05:06:51;;;;;;;7.80;3.42;;;8.00;75.10;;;;;;4916084;29;20064;-75
2022/10/12 05:09:19;;;;;;;6.43;3.50;;;8.00;75.20;;;;;;4929954;29;20972;-75
2022/10/12 05:11:46;;;;;;;6.68;3.17;;;8.00;75.10;;;;;;4946741;28;20708;-75
2022/10/12 05:14:13;;;;;;;5.95;3.00;;;8.00;75.10;;;;;;4946242;28;20445;-75
2022/10/12 05:16:40;;;;;;;7.75;3.15;;;8.00;75.00;;;;;;4915720;29;20052;-75
2022/10/12 05:19:07;;;;;;;7.53;3.63;;;8.00;75.00;;;;;;4945958;28;20067;-75
2022/10/12 05:21:35;;;;;;;6.07;3.57;;;8.00;74.90;;;;;;4946346;28;20907;-75
2022/10/12 05:24:02;;;;;;;6.18;3.03;;;8.10;75.00;;;;;;4946322;28;20300;-75
2022/10/12 05:26:29;;;;;;;5.85;2.72;;;8.10;75.00;;;;;;4946701;28;20208;-75
2022/10/12 05:28:56;;;;;;;6.60;3.28;;;8.10;75.00;;;;;;4915537;29;20055;-75
2022/10/12 05:31:23;;;;;;;7.68;3.72;;;8.10;75.00;;;;;;4945986;28;20063;-75
2022/10/12 05:33:50;;;;;;;6.97;3.20;;;8.10;75.00;;;;;;4945541;28;20133;-75
2022/10/12 05:36:16;;;;;;;6.60;3.15;;;8.10;75.00;;;;;;4915458;29;20275;-75
2022/10/12 05:38:45;;;;;;;5.90;2.80;;;8.10;75.00;;;;;;4915005;29;20911;-75
2022/10/12 05:41:12;;;;;;;7.70;2.83;;;8.10;74.90;;;;;;4915044;29;20523;-75
2022/10/12 05:43:38;;;;;;;8.00;3.30;;;8.10;74.80;;;;;;4945607;28;20545;-75
2022/10/12 05:46:05;;;;;;;8.13;3.07;;;8.10;74.80;;;;;;4915033;29;20063;-75
2022/10/12 05:48:32;;;;;;;7.95;2.80;;;8.10;74.80;;;;;;4915281;29;20730;-75
2022/10/12 05:51:00;;;;;;;5.93;2.70;;;8.00;74.70;;;;;;4914805;29;20128;-75
2022/10/12 05:53:27;;;;;;;6.95;3.20;;;8.00;74.70;;;;;;4915155;29;20063;-75
2022/10/12 05:55:57;;;;;;;6.38;2.95;;;8.00;74.70;;;;;;4945703;28;20057;-75
2022/10/12 05:58:25;;;;;;;5.93;3.30;;;8.00;74.70;;;;;;4929495;29;20056;-75
2022/10/12 06:00:52;;;;;;;7.38;4.03;;;8.00;74.70;;;;;;4914928;29;20285;-75
2022/10/12 06:03:20;;;;;;;8.20;4.47;;;7.90;74.60;;;;;;4914824;29;20507;-75
2022/10/12 06:05:47;;;;;;;9.48;4.88;;;7.80;74.70;;;;;;4942358;28;20052;-76
2022/10/12 06:08:14;;;;;;;7.75;4.28;;;7.80;74.80;;;;;;4896610;29;20109;-77
2022/10/12 06:10:46;;;;;;;8.53;4.97;;;7.80;75.00;;;;;;4916277;29;20056;-76
2022/10/12 06:13:16;;;;;;;11.68;4.70;;;7.80;75.00;;;;;;4913149;29;20376;-76
2022/10/12 06:15:45;;;;;;;8.90;4.55;;;7.80;74.90;;;;;;4902857;29;20053;-75
2022/10/12 06:18:12;;;;;;;8.93;4.13;;;7.70;75.00;;;;;;4911652;29;20056;-75
2022/10/12 06:20:40;;;;;;;8.15;4.18;;;7.70;75.10;;;;;;4912136;29;20052;-74
2022/10/12 06:23:06;;;;;;;7.63;3.90;;;7.80;75.00;;;;;;4912629;29;20067;-75
2022/10/12 06:25:33;;;;;;;7.10;4.10;;;7.80;75.00;;;;;;4912797;29;20249;-75
2022/10/12 06:28:00;;;;;;;8.85;3.70;;;7.80;75.00;;;;;;4917041;29;20546;-75
2022/10/12 06:30:29;;;;;;;6.00;3.38;;;7.80;75.00;;;;;;4912288;29;20196;-75
2022/10/12 06:32:56;;;;;;;6.63;3.20;;;7.80;74.80;;;;;;4911839;29;20059;-75
2022/10/12 06:35:23;;;;;;;5.97;3.27;;;7.80;74.80;;;;;;4913523;29;20053;-74
2022/10/12 06:37:50;;;;;;;7.32;3.50;;;7.80;74.70;;;;;;4914196;29;20389;-75
2022/10/12 06:40:17;;;;;;;8.65;3.83;;;7.80;74.70;;;;;;4928010;29;20056;-74
2022/10/12 06:42:44;;;;;;;7.85;3.35;;;7.80;74.70;;;;;;4944701;28;20053;-75
2022/10/12 06:45:12;;;;;;;6.32;3.33;;;7.80;74.70;;;;;;4944712;28;20100;-75
2022/10/12 06:47:40;;;;;;;9.13;3.47;;;7.80;74.70;;;;;;4946118;28;20052;-76
2022/10/12 06:50:09;;;;;;;6.70;3.42;;;7.80;74.70;;;;;;4915093;29;20280;-75
2022/10/12 06:52:36;;;;;;;7.97;4.07;;;7.80;74.70;;;;;;4898519;29;20060;-75
2022/10/12 06:55:04;;;;;;;8.27;4.30;;;7.80;74.80;;;;;;4906993;29;20048;-75
2022/10/12 06:57:31;;;;;;;10.75;4.30;;;7.80;74.80;;;;;;4943189;28;20045;-76
2022/10/12 06:59:58;;;;;;;8.43;4.60;;;7.80;74.90;;;;;;4921488;29;20048;-76
2022/10/12 07:02:26;;;;;;;6.90;3.75;;;7.80;74.80;;;;;;4931225;29;20312;-75
2022/10/12 07:04:54;;;;;;;8.45;4.00;;;7.80;74.90;;;;;;4915108;29;20053;-75
2022/10/12 07:07:21;;;;;;;7.60;3.70;;;7.80;74.90;;;;;;4895460;29;20167;-75
2022/10/12 07:09:48;;;;;;;8.18;3.63;;;7.80;75.00;;;;;;4922300;28;20091;-75
2022/10/12 07:12:15;;;;;;;7.23;3.50;;;7.80;75.10;;;;;;4915838;29;20052;-75
2022/10/12 07:14:42;;;;;;;8.85;3.92;;;7.80;75.10;;;;;;4911851;29;20254;-75
2022/10/12 07:17:10;;;;;;;7.25;4.45;;;7.80;75.20;;;;;;4895163;29;20582;-77
2022/10/12 07:19:37;;;;;;;8.20;4.35;;;7.80;75.20;;;;;;4911992;29;20056;-78
2022/10/12 07:22:05;;;;;;;8.65;4.35;;;7.80;75.20;;;;;;4912273;29;20056;-74
2022/10/12 07:24:35;;;;;;;10.80;4.90;;;7.80;75.30;;;;;;4917745;29;20915;-76
2022/10/12 07:27:03;;;;;;;10.77;5.32;;;7.80;75.30;;;;;;4944329;28;20249;-76
2022/10/12 07:30:19;;;;;;;10.98;4.97;;;7.80;75.50;;;;;;4914654;29;20057;-76
2022/10/12 07:32:46;;;;;;;10.05;5.18;;;7.90;75.40;;;;;;4893527;29;20087;-80
2022/10/12 07:35:14;;;;;;;12.70;5.60;;;7.80;75.60;;;;;;4934939;28;20104;-76
2022/10/12 07:37:42;;;;;;;11.17;5.40;;;7.80;75.70;;;;;;4944057;28;20065;-77
2022/10/12 07:40:10;;;;;;;10.90;5.47;;;7.90;75.90;;;;;;4942614;28;20280;-76
2022/10/12 07:42:37;;;;;;;12.40;6.07;;;7.90;76.60;;;;;;4943764;28;20059;-76
2022/10/12 07:45:04;;;;;;;11.48;5.80;;;8.00;77.20;;;;;;4924557;29;20057;-76
2022/10/12 07:47:31;;;;;;;13.05;5.80;;;8.00;77.20;;;;;;4905509;29;20064;-76
2022/10/12 07:49:59;;;;;;;14.33;5.77;;;8.00;77.50;;;;;;4903470;29;20071;-76
2022/10/12 07:52:27;;;;;;;12.02;5.22;;;8.00;77.70;;;;;;4904394;29;20284;-76
2022/10/12 07:54:55;;;;;;;13.80;5.03;;;8.00;77.80;;;;;;4917179;29;20072;-76
2022/10/12 07:57:23;;;;;;;11.63;4.80;;;8.10;78.30;;;;;;4903650;29;20052;-76
2022/10/12 07:59:50;;;;;;;12.70;4.78;;;8.10;78.60;;;;;;4895898;29;20159;-72
2022/10/12 08:02:17;;;;;;;12.50;5.10;;;8.10;78.90;;;;;;4913638;29;20053;-76
2022/10/12 08:04:44;;;;;;;8.82;4.82;;;8.20;79.00;;;;;;4921703;29;21023;-76
2022/10/12 08:07:11;;;;;;;10.43;4.78;;;8.20;79.20;;;;;;4915217;29;20506;-75
2022/10/12 08:09:38;;;;;;;10.38;4.20;;;8.30;79.20;;;;;;4911455;29;20139;-77
2022/10/12 08:12:07;;;;;;;13.57;4.53;;;8.30;79.10;;;;;;4911555;29;20059;-76
2022/10/12 08:14:34;;;;;;;10.30;4.40;;;8.40;79.20;;;;;;4900082;29;20052;-76
2022/10/12 08:17:01;;;;;;;12.77;4.70;;;8.40;79.30;;;;;;4907396;29;20277;-76
2022/10/12 08:19:28;;;;;;;10.52;4.47;;;8.50;79.30;;;;;;4923650;29;20055;-76
2022/10/12 08:21:55;;;;;;;9.95;4.10;;;8.50;79.40;;;;;;4898778;29;20059;-77
2022/10/12 08:24:22;;;;;;;13.68;4.70;;;8.60;79.60;;;;;;4925449;28;20045;-76
2022/10/12 08:26:49;;;;;;;14.13;4.73;;;8.60;79.60;;;;;;4911995;29;20067;-77
2022/10/12 08:29:18;;;;;;;9.73;4.03;;;8.60;79.70;;;;;;4919430;29;20246;-76
2022/10/12 08:31:45;;;;;;;11.15;4.57;;;8.60;79.50;;;;;;4925151;29;20151;-76
2022/10/12 08:34:12;;;;;;;12.13;4.22;;;8.70;79.40;;;;;;4913221;29;20439;-76
2022/10/12 08:36:39;;;;;;;11.65;4.45;;;8.80;79.60;;;;;;4916030;29;20060;-76
2022/10/12 08:39:07;;;;;;;8.30;3.63;;;8.80;79.50;;;;;;4899422;29;20037;-75
2022/10/12 08:41:44;;;;;;;12.98;4.60;;;8.90;79.60;;;;;;4908241;29;20344;-77
2022/10/12 08:44:52;;;;;;;9.88;4.35;;;8.90;79.70;;;;;;4928290;29;20063;-76
2022/10/12 08:47:25;;;;;;;9.35;4.28;;;8.90;79.60;;;;;;4915102;29;20131;-77
2022/10/12 08:49:54;;;;;;;9.93;4.53;;;9.00;79.60;;;;;;4928138;28;21000;-80
2022/10/12 08:52:33;;;;;;;9.57;4.00;;;9.00;79.80;;;;;;4914601;29;20519;-77
2022/10/12 08:55:05;;;;;;;10.38;3.97;;;9.00;79.70;;;;;;4899425;29;20246;-77
2022/10/12 08:57:34;;;;;;;14.38;4.43;;;9.10;79.40;;;;;;4932831;29;20143;-77
2022/10/12 09:00:03;;;;;;;12.45;4.88;;;9.10;79.40;;;;;;4915270;29;20056;-76
2022/10/12 09:02:49;;;;;;;12.23;4.80;;;9.20;79.60;;;;;;4898346;29;20507;-76
2022/10/12 09:05:22;;;;;;;16.17;5.67;;;9.20;79.60;;;;;;4928871;28;20052;-77
2022/10/12 09:07:57;;;;;;;11.52;4.80;;;9.20;79.70;;;;;;4898477;29;20270;-78
2022/10/12 09:10:37;;;;;;;9.68;4.07;;;9.30;80.00;;;;;;4915883;29;20147;-78
2022/10/12 09:13:16;;;;;;;12.00;3.78;;;9.40;80.00;;;;;;4915307;29;20079;-77
2022/10/12 09:15:52;;;;;;;11.75;4.05;;;9.40;80.20;;;;;;4902692;29;20064;-77
2022/10/12 09:18:25;;;;;;;11.93;3.77;;;9.40;80.20;;;;;;4930865;29;20063;-78
2022/10/12 09:20:53;;;;;;;11.05;3.58;;;9.50;80.10;;;;;;4928264;28;20298;-77
2022/10/12 09:23:25;;;;;;;10.82;3.03;;;9.60;80.20;;;;;;4922710;29;20180;-78
2022/10/12 09:25:54;;;;;;;9.80;3.63;;;9.70;80.20;;;;;;4929776;29;20082;-78
2022/10/12 09:28:29;;;;;;;11.90;3.50;;;9.80;80.00;;;;;;4922651;29;20080;-77
2022/10/12 09:31:10;;;;;;;8.53;3.13;;;9.90;79.80;;;;;;4914852;29;20069;-77
2022/10/12 09:33:44;;;;;;;8.73;3.30;;;10.00;79.60;;;;;;4911193;29;20357;-77
2022/10/12 09:36:14;;;;;;;11.48;3.88;;;10.10;79.50;;;;;;4911401;29;20060;-77
2022/10/12 09:38:41;;;;;;;12.95;4.30;;;10.20;79.40;;;;;;4928834;29;20131;-78
2022/10/12 09:41:19;;;;;;;10.32;3.55;;;10.20;79.40;;;;;;4906636;29;20056;-79
2022/10/12 09:43:48;;;;;;;9.13;3.07;;;10.30;79.40;;;;;;4918330;29;20048;-80
2022/10/12 09:46:19;;;;;;;8.00;3.38;;;10.40;79.20;;;;;;4924259;29;20257;-79
2022/10/12 09:49:00;;;;;;;10.63;3.90;;;10.50;78.90;;;;;;4917973;29;20055;-79
2022/10/12 09:51:29;;;;;;;11.70;3.97;;;10.60;78.70;;;;;;4922595;29;20096;-79
2022/10/12 09:54:02;;;;;;;10.32;3.67;;;10.70;78.40;;;;;;4911006;29;20049;-79
2022/10/12 09:56:35;;;;;;;8.30;2.83;;;10.70;78.50;;;;;;4906836;29;20095;-79
2022/10/12 09:59:05;;;;;;;11.73;3.10;;;10.80;78.10;;;;;;4896544;29;20268;-79
2022/10/12 10:01:35;;;;;;;13.38;3.50;;;10.90;77.90;;;;;;4928172;28;20057;-79
2022/10/12 10:04:13;;;;;;;9.68;3.00;;;11.00;77.50;;;;;;4928617;29;20065;-79
2022/10/12 10:06:42;;;;;;;10.30;3.85;;;11.10;76.80;;;;;;4925552;29;20064;-79
2022/10/12 10:09:28;;;;;;;11.00;3.23;;;11.10;76.60;;;;;;4930049;29;20056;-79
2022/10/12 10:11:55;;;;;;;14.57;5.18;;;11.20;76.40;;;;;;4915133;29;20673;-79
2022/10/12 10:14:22;;;;;;;9.50;3.85;;;11.30;76.30;;;;;;4904741;29;20044;-79
2022/10/12 10:16:53;;;;;;;8.20;2.83;;;11.40;76.20;;;;;;4929548;29;20056;-79
2022/10/12 10:19:25;;;;;;;6.50;2.90;;;11.50;76.20;;;;;;4930949;28;20084;-80
2022/10/12 10:21:54;;;;;;;10.00;2.93;;;11.50;75.80;;;;;;4905122;29;20111;-79
2022/10/12 10:24:26;;;;;;;13.00;3.05;;;11.70;75.90;;;;;;4914040;29;20278;-79
2022/10/12 10:26:56;;;;;;;10.57;3.45;;;11.70;75.40;;;;;;4932223;29;20132;-80
2022/10/12 10:29:33;;;;;;;9.05;1.90;;;11.90;75.20;;;;;;4917017;29;20057;-78
2022/10/12 10:32:22;;;;;;;8.75;1.70;;;11.90;75.10;;;;;;4894430;29;20071;-79
2022/10/12 10:35:20;;;;;;;6.83;1.80;;;12.00;75.00;;;;;;4900415;29;20049;-79
2022/10/12 10:38:08;;;;;;;5.88;1.80;;;12.20;74.80;;;;;;4908539;29;20824;-79
2022/10/12 10:42:02;;;;;;;10.45;2.28;;;12.30;74.50;;;;;;4915219;29;20052;-79
2022/10/12 10:44:51;;;;;;;8.13;2.50;;;12.50;74.00;;;;;;4909847;29;20052;-78
2022/10/12 10:47:45;;;;;;;7.95;2.80;;;12.50;73.60;;;;;;4912428;29;20705;-79
2022/10/12 10:50:25;;;;;;;8.50;2.50;;;12.70;73.20;;;;;;4894720;29;20053;-78
2022/10/12 10:52:56;;;;;;;7.90;2.60;;;12.80;72.90;;;;;;4927000;29;20290;-78
2022/10/12 10:55:31;;;;;;;8.43;2.33;;;12.90;72.90;;;;;;4895223;29;20052;-79
2022/10/12 10:58:03;;;;;;;7.53;2.35;;;13.00;72.60;;;;;;4927222;29;20073;-78
2022/10/12 11:00:32;;;;;;;10.45;2.63;;;13.10;72.60;;;;;;4901018;29;20086;-79
2022/10/12 11:03:06;;;;;;;9.27;2.70;;;13.20;72.50;;;;;;4929446;29;20055;-78
2022/10/12 11:05:37;;;;;;;10.02;2.75;;;13.30;72.30;;;;;;4924425;29;20272;-78
2022/10/12 11:08:10;;;;;;;7.57;2.70;;;13.40;72.50;;;;;;4907981;29;20050;-79
2022/10/12 11:10:44;;;;;;;9.48;3.03;;;13.50;72.50;;;;;;4924037;29;20053;-79
2022/10/12 11:13:17;;;;;;;10.50;3.15;;;13.60;72.20;;;;;;4920130;29;20180;-78
2022/10/12 11:15:48;;;;;;;10.90;2.70;;;13.80;72.00;;;;;;4903935;29;21001;-78
2022/10/12 11:18:21;;;;;;;8.52;2.70;;;13.90;71.50;;;;;;4924084;29;20313;-78
2022/10/12 11:20:56;;;;;;;7.22;2.45;;;14.00;71.20;;;;;;4927199;29;20143;-78
2022/10/12 11:23:30;;;;;;;10.68;2.67;;;14.10;70.70;;;;;;4912152;29;20164;-78
2022/10/12 11:26:11;;;;;;;8.50;2.90;;;14.30;70.40;;;;;;4913648;29;20132;-78
2022/10/12 11:28:39;;;;;;;10.07;2.50;;;14.40;70.10;;;;;;4912717;29;20056;-78
2022/10/12 11:31:12;;;;;;;8.45;3.00;;;14.50;70.10;;;;;;4926311;29;20816;-78
2022/10/12 11:33:43;;;;;;;10.95;2.83;;;14.50;69.10;;;;;;4912082;29;21042;-78
2022/10/12 11:37:00;;;;;;;8.60;2.47;;;14.60;67.90;;;;;;4913200;29;20612;-79
2022/10/12 11:39:34;;;;;;;8.25;2.78;;;14.70;68.20;;;;;;4914159;29;20055;-80
2022/10/12 11:42:02;;;;;;;9.50;2.83;;;14.80;67.50;;;;;;4889579;29;20068;-80
2022/10/12 11:44:39;;;;;;;10.10;2.60;;;14.90;67.30;;;;;;4916336;29;20284;-79
2022/10/12 11:47:13;;;;;;;7.68;2.55;;;15.00;67.40;;;;;;4912481;29;20051;-78
2022/10/12 11:49:51;;;;;;;9.27;2.63;;;15.00;65.60;;;;;;4927192;29;20507;-78
2022/10/12 11:52:19;;;;;;;6.78;2.72;;;15.00;65.30;;;;;;4895510;29;20053;-78
2022/10/12 11:54:55;;;;;;;7.73;2.50;;;15.20;65.30;;;;;;4895071;29;20057;-78
2022/10/12 11:57:26;;;;;;;7.80;2.38;;;15.20;65.30;;;;;;4912266;29;20276;-78
2022/10/12 11:59:59;;;;;;;7.50;2.30;;;15.30;63.80;;;;;;4895136;29;20516;-78
2022/10/12 12:02:29;;;;;;;8.38;2.50;;;15.40;63.70;;;;;;4879715;29;20139;-78
2022/10/12 12:04:58;;;;;;;7.80;2.42;;;15.40;64.00;;;;;;4895357;29;20452;-78
2022/10/12 12:07:42;;;;;;;9.23;2.27;;;15.50;64.30;;;;;;4895864;29;20128;-78
2022/10/12 12:10:50;;;;;;;10.05;2.40;;;15.60;64.10;;;;;;4896948;29;21210;-78
2022/10/12 12:13:25;;;;;;;9.73;2.00;;;15.60;62.40;;;;;;4899352;29;20063;-78
2022/10/12 12:16:32;;;;;;;6.88;1.98;;;15.70;61.50;;;;;;4915580;29;20092;-78
2022/10/12 12:19:33;;;;;;;5.88;2.15;;;15.80;61.50;;;;;;4916772;29;20057;-78
2022/10/12 12:22:19;;;;;;;7.27;2.00;;;15.80;61.90;;;;;;4899297;29;20159;-78
2022/10/12 12:25:26;;;;;;;7.75;2.00;;;15.90;61.20;;;;;;4899651;29;20835;-78
2022/10/12 12:27:56;;;;;;;6.65;2.00;;;16.00;60.50;;;;;;4899919;29;20079;-78
2022/10/12 12:30:27;;;;;;;8.23;2.50;;;16.00;60.50;;;;;;4898953;29;20055;-78
2022/10/12 12:32:57;;;;;;;7.97;2.38;;;16.10;60.40;;;;;;4916637;29;20061;-78
2022/10/12 12:35:29;;;;;;;5.83;2.20;;;16.20;60.00;;;;;;4916617;29;20131;-79
2022/10/12 12:38:17;;;;;;;9.07;2.08;;;16.20;59.80;;;;;;4915833;29;20297;-78
2022/10/12 12:40:56;;;;;;;9.60;2.65;;;16.30;59.60;;;;;;4930197;29;20585;-78
2022/10/12 12:44:00;;;;;;;9.80;2.72;;;16.40;58.40;;;;;;4899315;29;20049;-78
2022/10/12 12:47:08;;;;;;;7.38;2.10;;;16.40;58.80;;;;;;4916928;29;20064;-78
2022/10/12 12:49:42;;;;;;;16.73;3.00;;;16.50;59.60;;;;;;4916114;29;20519;-78
2022/10/12 12:52:24;;;;;;;8.77;2.60;;;16.60;59.60;;;;;;4914390;29;20893;-78
2022/10/12 12:55:35;;;;;;;8.43;2.70;;;16.60;59.40;;;;;;4916154;29;20063;-78
2022/10/12 12:58:26;;;;;;;8.82;2.88;;;16.70;59.50;;;;;;4893850;29;20057;-78
2022/10/12 13:01:16;;;;;;;8.45;2.90;;;16.80;59.30;;;;;;4876109;29;20053;-78
2022/10/12 13:04:02;;;;;;;12.43;3.53;;;16.90;59.00;;;;;;4898034;29;20056;-78
2022/10/12 13:07:05;;;;;;;8.82;2.95;;;17.00;59.30;;;;;;4908286;29;20288;-78
2022/10/12 13:10:07;;;;;;;7.68;2.90;;;17.00;59.10;;;;;;4906648;29;20132;-78
2022/10/12 13:13:00;;;;;;;10.45;3.17;;;17.10;59.10;;;;;;4921925;29;20048;-78
2022/10/12 13:15:55;;;;;;;11.90;2.85;;;17.20;58.00;;;;;;4931765;29;20119;-78
2022/10/12 13:18:46;;;;;;;11.77;3.30;;;17.30;57.70;;;;;;4934628;29;20135;-77
2022/10/12 13:21:18;;;;;;;10.52;3.40;;;17.30;57.90;;;;;;4899364;29;20277;-78